sensor_id;sensor_type;location;lat;lon;timestamp;P1;durP1;ratioP1;P2;durP2;ratioP2
28483;SDS011;15704;48.834;8.736;2023-02-15T00:01:56;38.97;;;19.85;;
28483;SDS011;15704;48.834;8.736;2023-02-15T00:04:24;39.83;;;18.45;;
28483;SDS011;15704;48.834;8.736;2023-02-15T00:07:12;38.90;;;18.48;;
28483;SDS011;15704;48.834;8.736;2023-02-15T00:09:40;39.00;;;19.40;;
28483;SDS011;15704;48.834;8.736;2023-02-15T00:12:08;38.58;;;18.02;;
28483;SDS011;15704;48.834;8.736;2023-02-15T00:14:35;47.97;;;19.42;;
28483;SDS011;15704;48.834;8.736;2023-02-15T00:17:02;36.55;;;17.42;;
28483;SDS011;15704;48.834;8.736;2023-02-15T00:19:29;36.58;;;17.77;;
28483;SDS011;15704;48.834;8.736;2023-02-15T00:21:56;41.20;;;19.23;;
28483;SDS011;15704;48.834;8.736;2023-02-15T00:24:23;44.28;;;19.90;;
28483;SDS011;15704;48.834;8.736;2023-02-15T00:26:59;45.00;;;21.08;;
28483;SDS011;15704;48.834;8.736;2023-02-15T00:29:25;42.35;;;19.67;;
28483;SDS011;15704;48.834;8.736;2023-02-15T00:31:52;41.00;;;19.42;;
28483;SDS011;15704;48.834;8.736;2023-02-15T00:34:23;40.63;;;17.33;;
28483;SDS011;15704;48.834;8.736;2023-02-15T00:36:52;33.70;;;17.20;;
28483;SDS011;15704;48.834;8.736;2023-02-15T00:39:19;42.40;;;18.65;;
28483;SDS011;15704;48.834;8.736;2023-02-15T00:41:46;38.55;;;17.92;;
28483;SDS011;15704;48.834;8.736;2023-02-15T00:44:13;43.63;;;16.90;;
28483;SDS011;15704;48.834;8.736;2023-02-15T00:46:41;36.88;;;16.90;;
28483;SDS011;15704;48.834;8.736;2023-02-15T00:49:07;30.95;;;15.98;;
28483;SDS011;15704;48.834;8.736;2023-02-15T00:51:34;32.33;;;16.60;;
28483;SDS011;15704;48.834;8.736;2023-02-15T00:54:01;29.17;;;15.23;;
28483;SDS011;15704;48.834;8.736;2023-02-15T00:56:28;33.53;;;16.52;;
28483;SDS011;15704;48.834;8.736;2023-02-15T00:58:54;45.78;;;19.70;;
28483;SDS011;15704;48.834;8.736;2023-02-15T01:01:21;45.88;;;19.42;;
28483;SDS011;15704;48.834;8.736;2023-02-15T01:03:49;41.55;;;17.17;;
28483;SDS011;15704;48.834;8.736;2023-02-15T01:06:16;32.53;;;17.15;;
28483;SDS011;15704;48.834;8.736;2023-02-15T01:08:46;36.55;;;17.95;;
28483;SDS011;15704;48.834;8.736;2023-02-15T01:11:14;36.55;;;16.02;;
28483;SDS011;15704;48.834;8.736;2023-02-15T01:13:52;32.22;;;15.55;;
28483;SDS011;15704;48.834;8.736;2023-02-15T01:16:20;37.05;;;15.43;;
28483;SDS011;15704;48.834;8.736;2023-02-15T01:18:48;31.83;;;15.27;;
28483;SDS011;15704;48.834;8.736;2023-02-15T01:21:16;30.15;;;14.93;;
28483;SDS011;15704;48.834;8.736;2023-02-15T01:23:45;28.45;;;14.48;;
28483;SDS011;15704;48.834;8.736;2023-02-15T01:26:13;30.13;;;14.70;;
28483;SDS011;15704;48.834;8.736;2023-02-15T01:28:49;31.55;;;15.88;;
28483;SDS011;15704;48.834;8.736;2023-02-15T01:31:23;31.30;;;15.95;;
28483;SDS011;15704;48.834;8.736;2023-02-15T01:33:50;32.65;;;16.05;;
28483;SDS011;15704;48.834;8.736;2023-02-15T01:36:16;35.13;;;14.65;;
28483;SDS011;15704;48.834;8.736;2023-02-15T01:38:43;34.28;;;15.02;;
28483;SDS011;15704;48.834;8.736;2023-02-15T01:41:10;27.50;;;13.80;;
28483;SDS011;15704;48.834;8.736;2023-02-15T01:43:53;28.40;;;14.23;;
28483;SDS011;15704;48.834;8.736;2023-02-15T01:46:30;26.33;;;11.68;;
28483;SDS011;15704;48.834;8.736;2023-02-15T01:49:06;22.65;;;12.25;;
28483;SDS011;15704;48.834;8.736;2023-02-15T01:51:37;31.52;;;12.52;;
28483;SDS011;15704;48.834;8.736;2023-02-15T01:54:09;29.58;;;14.00;;
28483;SDS011;15704;48.834;8.736;2023-02-15T01:56:39;35.83;;;15.00;;
28483;SDS011;15704;48.834;8.736;2023-02-15T01:59:09;29.52;;;13.98;;
28483;SDS011;15704;48.834;8.736;2023-02-15T02:01:49;27.90;;;12.98;;
28483;SDS011;15704;48.834;8.736;2023-02-15T02:04:30;26.08;;;12.85;;
28483;SDS011;15704;48.834;8.736;2023-02-15T02:07:01;28.33;;;13.55;;
28483;SDS011;15704;48.834;8.736;2023-02-15T02:09:44;21.85;;;12.25;;
28483;SDS011;15704;48.834;8.736;2023-02-15T02:12:11;29.45;;;14.27;;
28483;SDS011;15704;48.834;8.736;2023-02-15T02:14:39;27.08;;;13.45;;
28483;SDS011;15704;48.834;8.736;2023-02-15T02:17:11;25.35;;;12.75;;
28483;SDS011;15704;48.834;8.736;2023-02-15T02:34:16;31.60;;;14.90;;
28483;SDS011;15704;48.834;8.736;2023-02-15T02:37:37;26.75;;;14.35;;
28483;SDS011;15704;48.834;8.736;2023-02-15T02:42:36;31.85;;;13.82;;
28483;SDS011;15704;48.834;8.736;2023-02-15T02:45:40;29.08;;;14.25;;
28483;SDS011;15704;48.834;8.736;2023-02-15T02:48:14;26.92;;;13.43;;
28483;SDS011;15704;48.834;8.736;2023-02-15T02:50:44;26.13;;;13.27;;
28483;SDS011;15704;48.834;8.736;2023-02-15T02:53:11;34.65;;;15.27;;
28483;SDS011;15704;48.834;8.736;2023-02-15T02:55:40;34.38;;;15.05;;
28483;SDS011;15704;48.834;8.736;2023-02-15T02:58:56;32.33;;;16.10;;
28483;SDS011;15704;48.834;8.736;2023-02-15T03:04:40;40.10;;;16.55;;
28483;SDS011;15704;48.834;8.736;2023-02-15T03:07:15;32.72;;;16.08;;
28483;SDS011;15704;48.834;8.736;2023-02-15T03:09:54;34.22;;;14.30;;
28483;SDS011;15704;48.834;8.736;2023-02-15T03:12:25;25.55;;;12.55;;
28483;SDS011;15704;48.834;8.736;2023-02-15T03:14:57;22.15;;;11.77;;
28483;SDS011;15704;48.834;8.736;2023-02-15T03:17:31;26.48;;;12.90;;
28483;SDS011;15704;48.834;8.736;2023-02-15T03:20:10;23.80;;;11.75;;
28483;SDS011;15704;48.834;8.736;2023-02-15T03:25:45;22.50;;;11.13;;
28483;SDS011;15704;48.834;8.736;2023-02-15T03:28:17;21.70;;;10.73;;
28483;SDS011;15704;48.834;8.736;2023-02-15T03:30:49;18.52;;;9.73;;
28483;SDS011;15704;48.834;8.736;2023-02-15T03:33:19;15.70;;;9.13;;
28483;SDS011;15704;48.834;8.736;2023-02-15T03:35:49;17.88;;;8.13;;
28483;SDS011;15704;48.834;8.736;2023-02-15T03:38:17;19.42;;;8.85;;
28483;SDS011;15704;48.834;8.736;2023-02-15T03:40:48;19.47;;;8.43;;
28483;SDS011;15704;48.834;8.736;2023-02-15T03:46:25;15.27;;;7.50;;
28483;SDS011;15704;48.834;8.736;2023-02-15T03:49:38;13.65;;;7.55;;
28483;SDS011;15704;48.834;8.736;2023-02-15T03:52:11;13.35;;;7.55;;
28483;SDS011;15704;48.834;8.736;2023-02-15T03:54:39;15.82;;;7.88;;
28483;SDS011;15704;48.834;8.736;2023-02-15T04:00:18;16.00;;;6.72;;
28483;SDS011;15704;48.834;8.736;2023-02-15T04:05:35;13.68;;;5.75;;
28483;SDS011;15704;48.834;8.736;2023-02-15T04:08:02;11.07;;;5.45;;
28483;SDS011;15704;48.834;8.736;2023-02-15T04:10:29;11.48;;;5.80;;
28483;SDS011;15704;48.834;8.736;2023-02-15T04:13:24;9.30;;;5.78;;
28483;SDS011;15704;48.834;8.736;2023-02-15T04:16:00;12.98;;;6.72;;
28483;SDS011;15704;48.834;8.736;2023-02-15T04:18:32;16.65;;;8.35;;
28483;SDS011;15704;48.834;8.736;2023-02-15T04:21:29;15.57;;;7.63;;
28483;SDS011;15704;48.834;8.736;2023-02-15T04:24:15;17.80;;;8.27;;
28483;SDS011;15704;48.834;8.736;2023-02-15T04:27:01;28.98;;;13.27;;
28483;SDS011;15704;48.834;8.736;2023-02-15T04:29:29;33.30;;;12.70;;
28483;SDS011;15704;48.834;8.736;2023-02-15T04:31:57;18.98;;;7.82;;
28483;SDS011;15704;48.834;8.736;2023-02-15T04:34:25;16.88;;;5.57;;
28483;SDS011;15704;48.834;8.736;2023-02-15T04:36:52;24.88;;;10.10;;
28483;SDS011;15704;48.834;8.736;2023-02-15T04:39:19;26.65;;;10.32;;
28483;SDS011;15704;48.834;8.736;2023-02-15T04:41:46;25.98;;;10.93;;
28483;SDS011;15704;48.834;8.736;2023-02-15T04:44:14;25.95;;;10.70;;
28483;SDS011;15704;48.834;8.736;2023-02-15T04:46:40;25.17;;;11.70;;
28483;SDS011;15704;48.834;8.736;2023-02-15T04:49:08;29.63;;;12.35;;
28483;SDS011;15704;48.834;8.736;2023-02-15T04:51:35;26.70;;;10.45;;
28483;SDS011;15704;48.834;8.736;2023-02-15T04:54:02;17.52;;;9.15;;
28483;SDS011;15704;48.834;8.736;2023-02-15T04:56:29;18.15;;;8.30;;
28483;SDS011;15704;48.834;8.736;2023-02-15T04:58:57;19.27;;;8.90;;
28483;SDS011;15704;48.834;8.736;2023-02-15T05:01:24;13.13;;;6.60;;
28483;SDS011;15704;48.834;8.736;2023-02-15T05:03:51;10.13;;;5.15;;
28483;SDS011;15704;48.834;8.736;2023-02-15T05:06:18;8.77;;;4.82;;
28483;SDS011;15704;48.834;8.736;2023-02-15T05:08:45;12.63;;;5.00;;
28483;SDS011;15704;48.834;8.736;2023-02-15T05:11:11;7.68;;;4.53;;
28483;SDS011;15704;48.834;8.736;2023-02-15T05:13:38;12.15;;;4.10;;
28483;SDS011;15704;48.834;8.736;2023-02-15T05:16:06;8.52;;;4.00;;
28483;SDS011;15704;48.834;8.736;2023-02-15T05:18:32;10.20;;;4.13;;
28483;SDS011;15704;48.834;8.736;2023-02-15T05:20:59;9.13;;;3.85;;
28483;SDS011;15704;48.834;8.736;2023-02-15T05:23:26;7.00;;;4.00;;
28483;SDS011;15704;48.834;8.736;2023-02-15T05:25:53;6.88;;;3.83;;
28483;SDS011;15704;48.834;8.736;2023-02-15T05:28:39;8.10;;;3.75;;
28483;SDS011;15704;48.834;8.736;2023-02-15T05:31:07;15.23;;;4.57;;
28483;SDS011;15704;48.834;8.736;2023-02-15T05:33:38;11.50;;;5.00;;
28483;SDS011;15704;48.834;8.736;2023-02-15T05:36:08;7.50;;;4.32;;
28483;SDS011;15704;48.834;8.736;2023-02-15T05:38:38;9.68;;;4.18;;
28483;SDS011;15704;48.834;8.736;2023-02-15T05:41:05;7.15;;;4.03;;
28483;SDS011;15704;48.834;8.736;2023-02-15T05:43:35;4.78;;;3.22;;
28483;SDS011;15704;48.834;8.736;2023-02-15T05:46:02;8.40;;;4.63;;
28483;SDS011;15704;48.834;8.736;2023-02-15T05:48:35;7.28;;;4.10;;
28483;SDS011;15704;48.834;8.736;2023-02-15T05:51:07;14.35;;;5.57;;
28483;SDS011;15704;48.834;8.736;2023-02-15T05:53:39;8.63;;;4.57;;
28483;SDS011;15704;48.834;8.736;2023-02-15T05:56:07;12.93;;;4.78;;
28483;SDS011;15704;48.834;8.736;2023-02-15T05:58:36;12.05;;;5.45;;
28483;SDS011;15704;48.834;8.736;2023-02-15T06:01:15;18.85;;;9.45;;
28483;SDS011;15704;48.834;8.736;2023-02-15T06:03:52;21.85;;;12.07;;
28483;SDS011;15704;48.834;8.736;2023-02-15T06:06:20;6.47;;;3.70;;
28483;SDS011;15704;48.834;8.736;2023-02-15T06:08:47;7.90;;;3.80;;
28483;SDS011;15704;48.834;8.736;2023-02-15T06:11:22;8.30;;;4.72;;
28483;SDS011;15704;48.834;8.736;2023-02-15T06:13:49;7.70;;;4.43;;
28483;SDS011;15704;48.834;8.736;2023-02-15T06:16:24;15.25;;;4.57;;
28483;SDS011;15704;48.834;8.736;2023-02-15T06:19:16;8.10;;;4.32;;
28483;SDS011;15704;48.834;8.736;2023-02-15T06:21:43;6.40;;;3.88;;
28483;SDS011;15704;48.834;8.736;2023-02-15T06:24:10;7.93;;;4.13;;
28483;SDS011;15704;48.834;8.736;2023-02-15T06:26:37;6.70;;;3.65;;
28483;SDS011;15704;48.834;8.736;2023-02-15T06:29:06;8.52;;;3.80;;
28483;SDS011;15704;48.834;8.736;2023-02-15T06:31:42;10.88;;;5.78;;
28483;SDS011;15704;48.834;8.736;2023-02-15T06:34:09;12.38;;;6.78;;
28483;SDS011;15704;48.834;8.736;2023-02-15T06:36:35;12.75;;;6.68;;
28483;SDS011;15704;48.834;8.736;2023-02-15T06:39:03;14.35;;;6.78;;
28483;SDS011;15704;48.834;8.736;2023-02-15T06:41:33;10.85;;;6.55;;
28483;SDS011;15704;48.834;8.736;2023-02-15T06:44:07;14.48;;;6.80;;
28483;SDS011;15704;48.834;8.736;2023-02-15T06:46:34;24.33;;;10.57;;
28483;SDS011;15704;48.834;8.736;2023-02-15T06:49:03;26.02;;;11.27;;
28483;SDS011;15704;48.834;8.736;2023-02-15T06:54:00;22.58;;;11.00;;
28483;SDS011;15704;48.834;8.736;2023-02-15T06:56:26;23.40;;;11.90;;
28483;SDS011;15704;48.834;8.736;2023-02-15T06:59:01;15.68;;;7.47;;
28483;SDS011;15704;48.834;8.736;2023-02-15T07:01:30;14.98;;;7.63;;
28483;SDS011;15704;48.834;8.736;2023-02-15T07:03:56;19.98;;;10.23;;
28483;SDS011;15704;48.834;8.736;2023-02-15T07:06:23;11.88;;;6.65;;
28483;SDS011;15704;48.834;8.736;2023-02-15T07:08:50;13.68;;;6.55;;
28483;SDS011;15704;48.834;8.736;2023-02-15T07:11:17;13.32;;;7.95;;
28483;SDS011;15704;48.834;8.736;2023-02-15T07:14:02;11.95;;;6.22;;
28483;SDS011;15704;48.834;8.736;2023-02-15T07:16:31;13.38;;;6.63;;
28483;SDS011;15704;48.834;8.736;2023-02-15T07:19:00;12.35;;;5.43;;
28483;SDS011;15704;48.834;8.736;2023-02-15T07:21:27;13.73;;;6.55;;
28483;SDS011;15704;48.834;8.736;2023-02-15T07:23:57;12.32;;;8.23;;
28483;SDS011;15704;48.834;8.736;2023-02-15T07:26:24;15.13;;;8.05;;
28483;SDS011;15704;48.834;8.736;2023-02-15T07:28:51;14.63;;;9.50;;
28483;SDS011;15704;48.834;8.736;2023-02-15T07:31:25;17.25;;;10.20;;
28483;SDS011;15704;48.834;8.736;2023-02-15T07:33:52;18.85;;;10.90;;
28483;SDS011;15704;48.834;8.736;2023-02-15T07:36:19;16.70;;;9.02;;
28483;SDS011;15704;48.834;8.736;2023-02-15T07:38:46;15.57;;;7.65;;
28483;SDS011;15704;48.834;8.736;2023-02-15T07:41:13;10.10;;;5.45;;
28483;SDS011;15704;48.834;8.736;2023-02-15T07:44:12;9.25;;;5.75;;
28483;SDS011;15704;48.834;8.736;2023-02-15T07:46:39;12.27;;;7.20;;
28483;SDS011;15704;48.834;8.736;2023-02-15T07:49:15;11.52;;;6.43;;
28483;SDS011;15704;48.834;8.736;2023-02-15T07:51:49;12.18;;;6.63;;
28483;SDS011;15704;48.834;8.736;2023-02-15T07:54:16;13.23;;;6.72;;
28483;SDS011;15704;48.834;8.736;2023-02-15T07:56:43;12.75;;;6.70;;
28483;SDS011;15704;48.834;8.736;2023-02-15T07:59:10;10.48;;;5.88;;
28483;SDS011;15704;48.834;8.736;2023-02-15T08:01:37;10.80;;;6.15;;
28483;SDS011;15704;48.834;8.736;2023-02-15T08:04:13;12.43;;;6.20;;
28483;SDS011;15704;48.834;8.736;2023-02-15T08:06:39;11.73;;;6.70;;
28483;SDS011;15704;48.834;8.736;2023-02-15T08:09:07;17.67;;;8.60;;
28483;SDS011;15704;48.834;8.736;2023-02-15T08:11:40;14.10;;;6.88;;
28483;SDS011;15704;48.834;8.736;2023-02-15T08:14:15;23.58;;;12.65;;
28483;SDS011;15704;48.834;8.736;2023-02-15T08:19:14;20.00;;;10.23;;
28483;SDS011;15704;48.834;8.736;2023-02-15T08:21:54;21.17;;;11.60;;
28483;SDS011;15704;48.834;8.736;2023-02-15T08:24:30;30.05;;;15.40;;
28483;SDS011;15704;48.834;8.736;2023-02-15T08:26:59;21.00;;;11.95;;
28483;SDS011;15704;48.834;8.736;2023-02-15T08:29:31;22.60;;;11.65;;
28483;SDS011;15704;48.834;8.736;2023-02-15T08:32:03;24.65;;;14.32;;
28483;SDS011;15704;48.834;8.736;2023-02-15T08:34:36;20.88;;;11.38;;
28483;SDS011;15704;48.834;8.736;2023-02-15T08:37:10;35.25;;;21.02;;
28483;SDS011;15704;48.834;8.736;2023-02-15T08:39:46;23.15;;;12.77;;
28483;SDS011;15704;48.834;8.736;2023-02-15T08:42:15;26.13;;;14.07;;
28483;SDS011;15704;48.834;8.736;2023-02-15T08:44:42;17.42;;;10.27;;
28483;SDS011;15704;48.834;8.736;2023-02-15T08:47:09;24.05;;;10.73;;
28483;SDS011;15704;48.834;8.736;2023-02-15T08:49:50;18.90;;;10.73;;
28483;SDS011;15704;48.834;8.736;2023-02-15T08:52:17;32.75;;;16.02;;
28483;SDS011;15704;48.834;8.736;2023-02-15T08:57:33;19.63;;;10.65;;
28483;SDS011;15704;48.834;8.736;2023-02-15T09:00:10;19.50;;;10.40;;
28483;SDS011;15704;48.834;8.736;2023-02-15T09:02:38;18.00;;;8.68;;
28483;SDS011;15704;48.834;8.736;2023-02-15T09:05:07;19.48;;;10.00;;
28483;SDS011;15704;48.834;8.736;2023-02-15T09:07:36;18.52;;;10.00;;
28483;SDS011;15704;48.834;8.736;2023-02-15T09:10:03;16.20;;;9.45;;
28483;SDS011;15704;48.834;8.736;2023-02-15T09:12:30;21.10;;;10.55;;
28483;SDS011;15704;48.834;8.736;2023-02-15T09:14:56;20.55;;;9.73;;
28483;SDS011;15704;48.834;8.736;2023-02-15T09:17:26;17.58;;;9.70;;
28483;SDS011;15704;48.834;8.736;2023-02-15T09:19:52;22.38;;;9.30;;
28483;SDS011;15704;48.834;8.736;2023-02-15T09:22:48;19.65;;;10.55;;
28483;SDS011;15704;48.834;8.736;2023-02-15T09:25:14;19.45;;;10.15;;
28483;SDS011;15704;48.834;8.736;2023-02-15T09:27:41;15.93;;;9.73;;
28483;SDS011;15704;48.834;8.736;2023-02-15T09:30:21;16.73;;;9.48;;
28483;SDS011;15704;48.834;8.736;2023-02-15T09:32:48;14.38;;;8.82;;
28483;SDS011;15704;48.834;8.736;2023-02-15T09:35:14;21.60;;;13.18;;
28483;SDS011;15704;48.834;8.736;2023-02-15T09:37:51;17.05;;;9.05;;
28483;SDS011;15704;48.834;8.736;2023-02-15T09:40:25;24.42;;;12.93;;
28483;SDS011;15704;48.834;8.736;2023-02-15T09:43:55;14.93;;;8.50;;
28483;SDS011;15704;48.834;8.736;2023-02-15T09:46:29;13.63;;;8.18;;
28483;SDS011;15704;48.834;8.736;2023-02-15T09:49:13;15.23;;;8.73;;
28483;SDS011;15704;48.834;8.736;2023-02-15T09:51:55;17.88;;;9.05;;
28483;SDS011;15704;48.834;8.736;2023-02-15T09:57:38;18.00;;;9.35;;
28483;SDS011;15704;48.834;8.736;2023-02-15T10:00:46;19.88;;;9.80;;
28483;SDS011;15704;48.834;8.736;2023-02-15T10:06:34;15.77;;;8.55;;
28483;SDS011;15704;48.834;8.736;2023-02-15T10:17:27;13.98;;;7.97;;
28483;SDS011;15704;48.834;8.736;2023-02-15T10:20:29;16.77;;;8.18;;
28483;SDS011;15704;48.834;8.736;2023-02-15T10:32:09;15.38;;;7.90;;
28483;SDS011;15704;48.834;8.736;2023-02-15T10:34:54;11.80;;;7.38;;
28483;SDS011;15704;48.834;8.736;2023-02-15T10:43:13;9.70;;;5.78;;
28483;SDS011;15704;48.834;8.736;2023-02-15T10:54:14;14.93;;;8.68;;
28483;SDS011;15704;48.834;8.736;2023-02-15T10:56:56;15.25;;;8.15;;
28483;SDS011;15704;48.834;8.736;2023-02-15T11:02:47;15.75;;;9.85;;
28483;SDS011;15704;48.834;8.736;2023-02-15T11:05:25;17.25;;;10.15;;
28483;SDS011;15704;48.834;8.736;2023-02-15T11:08:14;24.48;;;11.93;;
28483;SDS011;15704;48.834;8.736;2023-02-15T11:13:25;16.98;;;9.73;;
28483;SDS011;15704;48.834;8.736;2023-02-15T11:15:59;14.98;;;7.43;;
28483;SDS011;15704;48.834;8.736;2023-02-15T11:23:45;21.45;;;13.30;;
28483;SDS011;15704;48.834;8.736;2023-02-15T11:26:33;24.10;;;14.20;;
28483;SDS011;15704;48.834;8.736;2023-02-15T11:29:10;30.33;;;15.33;;
28483;SDS011;15704;48.834;8.736;2023-02-15T11:31:50;28.75;;;15.75;;
28483;SDS011;15704;48.834;8.736;2023-02-15T11:34:29;28.23;;;15.57;;
28483;SDS011;15704;48.834;8.736;2023-02-15T11:37:08;28.05;;;14.60;;
28483;SDS011;15704;48.834;8.736;2023-02-15T11:39:39;26.10;;;14.65;;
28483;SDS011;15704;48.834;8.736;2023-02-15T11:42:16;27.55;;;14.38;;
28483;SDS011;15704;48.834;8.736;2023-02-15T11:44:52;28.85;;;14.30;;
28483;SDS011;15704;48.834;8.736;2023-02-15T11:47:48;30.60;;;15.63;;
28483;SDS011;15704;48.834;8.736;2023-02-15T11:50:15;29.60;;;14.25;;
28483;SDS011;15704;48.834;8.736;2023-02-15T11:52:51;30.02;;;15.80;;
28483;SDS011;15704;48.834;8.736;2023-02-15T11:55:21;28.70;;;16.45;;
28483;SDS011;15704;48.834;8.736;2023-02-15T12:01:18;33.28;;;15.65;;
28483;SDS011;15704;48.834;8.736;2023-02-15T12:03:50;32.30;;;15.48;;
28483;SDS011;15704;48.834;8.736;2023-02-15T12:09:06;27.48;;;14.50;;
28483;SDS011;15704;48.834;8.736;2023-02-15T12:11:51;21.63;;;11.10;;
28483;SDS011;15704;48.834;8.736;2023-02-15T12:14:18;21.80;;;12.25;;
28483;SDS011;15704;48.834;8.736;2023-02-15T12:16:46;19.52;;;10.18;;
28483;SDS011;15704;48.834;8.736;2023-02-15T12:19:33;17.20;;;9.63;;
28483;SDS011;15704;48.834;8.736;2023-02-15T12:22:17;17.38;;;10.23;;
28483;SDS011;15704;48.834;8.736;2023-02-15T12:25:02;18.95;;;10.27;;
28483;SDS011;15704;48.834;8.736;2023-02-15T12:27:45;19.02;;;9.07;;
28483;SDS011;15704;48.834;8.736;2023-02-15T12:32:52;26.35;;;12.07;;
28483;SDS011;15704;48.834;8.736;2023-02-15T12:35:27;20.38;;;9.90;;
28483;SDS011;15704;48.834;8.736;2023-02-15T12:38:00;24.38;;;12.35;;
28483;SDS011;15704;48.834;8.736;2023-02-15T12:40:29;16.55;;;8.88;;
28483;SDS011;15704;48.834;8.736;2023-02-15T12:42:57;16.05;;;8.40;;
28483;SDS011;15704;48.834;8.736;2023-02-15T12:45:28;14.40;;;7.80;;
28483;SDS011;15704;48.834;8.736;2023-02-15T12:50:38;12.70;;;7.43;;
28483;SDS011;15704;48.834;8.736;2023-02-15T12:55:57;14.40;;;8.05;;
28483;SDS011;15704;48.834;8.736;2023-02-15T12:58:26;21.77;;;8.77;;
28483;SDS011;15704;48.834;8.736;2023-02-15T13:03:35;14.75;;;8.07;;
28483;SDS011;15704;48.834;8.736;2023-02-15T13:06:13;18.05;;;7.78;;
28483;SDS011;15704;48.834;8.736;2023-02-15T13:08:50;18.50;;;7.45;;
28483;SDS011;15704;48.834;8.736;2023-02-15T13:11:29;14.60;;;8.07;;
28483;SDS011;15704;48.834;8.736;2023-02-15T13:14:04;14.03;;;7.67;;
28483;SDS011;15704;48.834;8.736;2023-02-15T13:16:41;14.27;;;7.60;;
28483;SDS011;15704;48.834;8.736;2023-02-15T13:19:15;15.15;;;7.25;;
28483;SDS011;15704;48.834;8.736;2023-02-15T13:21:50;19.42;;;9.23;;
28483;SDS011;15704;48.834;8.736;2023-02-15T13:24:39;20.38;;;7.22;;
28483;SDS011;15704;48.834;8.736;2023-02-15T13:29:43;13.80;;;7.38;;
28483;SDS011;15704;48.834;8.736;2023-02-15T13:34:52;14.57;;;7.13;;
28483;SDS011;15704;48.834;8.736;2023-02-15T13:40:15;14.05;;;6.45;;
28483;SDS011;15704;48.834;8.736;2023-02-15T13:57:38;23.33;;;11.93;;
28483;SDS011;15704;48.834;8.736;2023-02-15T14:00:40;24.13;;;11.50;;
28483;SDS011;15704;48.834;8.736;2023-02-15T14:11:16;23.75;;;11.18;;
28483;SDS011;15704;48.834;8.736;2023-02-15T14:21:56;42.35;;;17.08;;
28483;SDS011;15704;48.834;8.736;2023-02-15T14:24:30;96.63;;;44.90;;
28483;SDS011;15704;48.834;8.736;2023-02-15T14:30:09;21.67;;;11.60;;
28483;SDS011;15704;48.834;8.736;2023-02-15T14:36:05;15.88;;;9.27;;
28483;SDS011;15704;48.834;8.736;2023-02-15T14:41:43;15.13;;;8.98;;
28483;SDS011;15704;48.834;8.736;2023-02-15T14:44:33;22.83;;;9.65;;
28483;SDS011;15704;48.834;8.736;2023-02-15T14:47:22;16.50;;;9.93;;
28483;SDS011;15704;48.834;8.736;2023-02-15T14:58:37;19.55;;;9.93;;
28483;SDS011;15704;48.834;8.736;2023-02-15T15:01:30;24.30;;;10.30;;
28483;SDS011;15704;48.834;8.736;2023-02-15T15:04:00;20.48;;;11.13;;
28483;SDS011;15704;48.834;8.736;2023-02-15T15:06:34;18.48;;;10.82;;
28483;SDS011;15704;48.834;8.736;2023-02-15T15:14:48;24.67;;;11.02;;
28483;SDS011;15704;48.834;8.736;2023-02-15T15:20:19;22.95;;;12.77;;
28483;SDS011;15704;48.834;8.736;2023-02-15T15:42:20;23.83;;;12.37;;
28483;SDS011;15704;48.834;8.736;2023-02-15T15:50:19;24.35;;;12.07;;
28483;SDS011;15704;48.834;8.736;2023-02-15T15:52:50;22.85;;;13.15;;
28483;SDS011;15704;48.834;8.736;2023-02-15T15:55:26;27.92;;;14.20;;
28483;SDS011;15704;48.834;8.736;2023-02-15T15:57:56;41.50;;;13.38;;
28483;SDS011;15704;48.834;8.736;2023-02-15T16:03:01;19.00;;;11.00;;
28483;SDS011;15704;48.834;8.736;2023-02-15T16:05:34;35.13;;;16.35;;
28483;SDS011;15704;48.834;8.736;2023-02-15T16:08:02;26.23;;;12.00;;
28483;SDS011;15704;48.834;8.736;2023-02-15T16:10:29;18.23;;;10.20;;
28483;SDS011;15704;48.834;8.736;2023-02-15T16:12:58;17.52;;;9.00;;
28483;SDS011;15704;48.834;8.736;2023-02-15T16:15:36;19.92;;;9.07;;
28483;SDS011;15704;48.834;8.736;2023-02-15T16:18:13;17.38;;;9.02;;
28483;SDS011;15704;48.834;8.736;2023-02-15T16:20:48;13.48;;;8.90;;
28483;SDS011;15704;48.834;8.736;2023-02-15T16:28:48;14.75;;;8.00;;
28483;SDS011;15704;48.834;8.736;2023-02-15T16:31:16;18.67;;;7.47;;
28483;SDS011;15704;48.834;8.736;2023-02-15T16:33:43;13.82;;;6.80;;
28483;SDS011;15704;48.834;8.736;2023-02-15T16:36:12;15.20;;;6.45;;
28483;SDS011;15704;48.834;8.736;2023-02-15T16:41:26;11.88;;;6.40;;
28483;SDS011;15704;48.834;8.736;2023-02-15T16:43:56;13.15;;;6.55;;
28483;SDS011;15704;48.834;8.736;2023-02-15T16:46:26;16.58;;;6.65;;
28483;SDS011;15704;48.834;8.736;2023-02-15T16:52:31;14.55;;;6.22;;
28483;SDS011;15704;48.834;8.736;2023-02-15T16:54:59;13.95;;;6.55;;
28483;SDS011;15704;48.834;8.736;2023-02-15T16:57:35;16.30;;;7.15;;
28483;SDS011;15704;48.834;8.736;2023-02-15T17:00:05;12.13;;;6.75;;
28483;SDS011;15704;48.834;8.736;2023-02-15T17:02:52;16.85;;;7.00;;
28483;SDS011;15704;48.834;8.736;2023-02-15T17:08:17;14.55;;;7.03;;
28483;SDS011;15704;48.834;8.736;2023-02-15T17:10:46;14.70;;;6.82;;
28483;SDS011;15704;48.834;8.736;2023-02-15T17:13:30;12.68;;;6.80;;
28483;SDS011;15704;48.834;8.736;2023-02-15T17:18:31;31.40;;;15.23;;
28483;SDS011;15704;48.834;8.736;2023-02-15T17:21:12;76.90;;;29.58;;
28483;SDS011;15704;48.834;8.736;2023-02-15T17:23:45;153.00;;;57.85;;
28483;SDS011;15704;48.834;8.736;2023-02-15T17:26:24;75.65;;;30.50;;
28483;SDS011;15704;48.834;8.736;2023-02-15T17:31:25;72.60;;;31.40;;
28483;SDS011;15704;48.834;8.736;2023-02-15T17:33:58;39.95;;;17.73;;
28483;SDS011;15704;48.834;8.736;2023-02-15T17:36:30;20.30;;;10.20;;
28483;SDS011;15704;48.834;8.736;2023-02-15T17:43:51;22.50;;;8.43;;
28483;SDS011;15704;48.834;8.736;2023-02-15T17:46:18;20.08;;;9.32;;
28483;SDS011;15704;48.834;8.736;2023-02-15T17:48:48;16.02;;;8.80;;
28483;SDS011;15704;48.834;8.736;2023-02-15T17:51:20;16.48;;;9.25;;
28483;SDS011;15704;48.834;8.736;2023-02-15T17:53:47;17.98;;;9.73;;
28483;SDS011;15704;48.834;8.736;2023-02-15T17:56:33;22.70;;;11.27;;
28483;SDS011;15704;48.834;8.736;2023-02-15T17:59:01;34.92;;;14.75;;
28483;SDS011;15704;48.834;8.736;2023-02-15T18:01:33;32.00;;;14.20;;
28483;SDS011;15704;48.834;8.736;2023-02-15T18:04:20;35.25;;;13.77;;
28483;SDS011;15704;48.834;8.736;2023-02-15T18:07:08;31.95;;;12.85;;
28483;SDS011;15704;48.834;8.736;2023-02-15T18:09:54;25.77;;;10.43;;
28483;SDS011;15704;48.834;8.736;2023-02-15T18:12:39;32.03;;;13.20;;
28483;SDS011;15704;48.834;8.736;2023-02-15T18:15:06;30.58;;;11.23;;
28483;SDS011;15704;48.834;8.736;2023-02-15T18:17:38;18.67;;;9.40;;
28483;SDS011;15704;48.834;8.736;2023-02-15T18:20:14;18.50;;;9.32;;
28483;SDS011;15704;48.834;8.736;2023-02-15T18:22:44;22.05;;;8.95;;
28483;SDS011;15704;48.834;8.736;2023-02-15T18:25:14;23.88;;;9.45;;
28483;SDS011;15704;48.834;8.736;2023-02-15T18:27:42;23.13;;;11.00;;
28483;SDS011;15704;48.834;8.736;2023-02-15T18:30:13;22.23;;;10.02;;
28483;SDS011;15704;48.834;8.736;2023-02-15T18:35:14;16.53;;;8.67;;
28483;SDS011;15704;48.834;8.736;2023-02-15T18:37:42;15.15;;;7.97;;
28483;SDS011;15704;48.834;8.736;2023-02-15T18:40:17;16.75;;;7.90;;
28483;SDS011;15704;48.834;8.736;2023-02-15T18:42:45;17.63;;;9.40;;
28483;SDS011;15704;48.834;8.736;2023-02-15T18:45:17;18.60;;;9.05;;
28483;SDS011;15704;48.834;8.736;2023-02-15T18:47:53;20.73;;;10.55;;
28483;SDS011;15704;48.834;8.736;2023-02-15T18:50:21;20.90;;;11.07;;